Time;durP1;ratioP1;P1;durP2;ratioP2;P2;SDS_P1;SDS_P2;PMS_P1;PMS_P2;Temp;Humidity;BMP_temperature;BMP_pressure;BME280_temperature;BME280_humidity;BME280_pressure;Samples;Min_cycle;Max_cycle;Signal;HPM_P1;HPM_P2
2021/03/23 00:00:58;;;;;;;5.60;4.83;;;3.80;99.90;;;;;;5059799;28;20485;-82
2021/03/23 00:03:27;;;;;;;6.17;3.90;;;3.80;99.90;;;;;;5060161;28;20496;-82
2021/03/23 00:05:57;;;;;;;15.90;4.10;;;3.50;99.90;;;;;;5044058;28;20373;-81
2021/03/23 00:08:41;;;;;;;5.33;4.20;;;3.40;99.90;;;;;;5033052;28;20443;-80
2021/03/23 00:11:12;;;;;;;7.43;4.63;;;3.40;99.90;;;;;;5067811;28;20450;-80
2021/03/23 00:13:43;;;;;;;13.13;4.17;;;3.20;99.90;;;;;;5067464;28;20395;-80
2021/03/23 00:16:10;;;;;;;7.23;5.67;;;3.30;99.90;;;;;;5068373;28;20401;-80
2021/03/23 00:18:36;;;;;;;5.30;4.80;;;3.20;99.90;;;;;;5069667;28;20469;-80
2021/03/23 00:21:02;;;;;;;4.77;4.37;;;3.30;99.90;;;;;;5070620;28;20458;-81
2021/03/23 00:23:28;;;;;;;7.60;3.70;;;3.10;99.90;;;;;;5068294;28;20446;-80
2021/03/23 00:25:54;;;;;;;8.03;3.93;;;3.00;99.90;;;;;;5050559;28;20409;-80
2021/03/23 00:28:23;;;;;;;4.60;3.93;;;3.10;99.90;;;;;;5067816;28;20415;-82
2021/03/23 00:30:49;;;;;;;11.80;4.70;;;3.10;99.90;;;;;;5065744;28;20523;-81
2021/03/23 00:33:15;;;;;;;5.17;3.90;;;3.10;99.90;;;;;;5063453;28;20388;-82
2021/03/23 00:35:41;;;;;;;4.93;4.43;;;3.00;99.90;;;;;;5062666;28;20372;-82
2021/03/23 00:38:09;;;;;;;6.03;4.23;;;2.90;99.90;;;;;;5045563;28;20209;-81
2021/03/23 00:40:37;;;;;;;4.37;3.97;;;2.90;99.90;;;;;;5064109;28;20169;-82
2021/03/23 00:43:08;;;;;;;6.77;4.07;;;2.90;99.90;;;;;;5062983;28;20474;-82
2021/03/23 00:45:39;;;;;;;4.53;4.13;;;2.80;99.90;;;;;;5063279;28;20373;-82
2021/03/23 00:48:06;;;;;;;5.17;4.10;;;2.90;99.90;;;;;;5063170;28;20401;-81
2021/03/23 00:50:32;;;;;;;5.80;3.70;;;2.80;99.90;;;;;;5062459;28;20876;-81
2021/03/23 00:52:58;;;;;;;9.50;5.33;;;2.90;99.90;;;;;;5064408;28;20408;-80
2021/03/23 00:55:24;;;;;;;11.20;5.50;;;2.80;99.90;;;;;;5067892;28;20382;-81
2021/03/23 00:57:50;;;;;;;8.80;5.00;;;2.90;99.90;;;;;;5069856;28;20427;-79
2021/03/23 01:00:17;;;;;;;6.53;4.20;;;3.00;99.90;;;;;;5069245;28;20168;-79
2021/03/23 01:02:44;;;;;;;5.00;4.50;;;3.00;99.90;;;;;;5035772;28;20200;-79
2021/03/23 01:05:12;;;;;;;10.00;5.40;;;3.00;99.90;;;;;;5067234;28;20781;-82
2021/03/23 01:07:38;;;;;;;8.30;4.80;;;3.00;99.90;;;;;;5062987;28;20405;-81
2021/03/23 01:10:06;;;;;;;7.73;5.10;;;3.00;99.90;;;;;;5061145;28;20409;-81
2021/03/23 01:12:32;;;;;;;10.90;6.40;;;2.90;99.90;;;;;;5061687;28;20485;-80
2021/03/23 01:14:58;;;;;;;8.20;5.57;;;3.10;99.90;;;;;;5061946;28;20384;-81
2021/03/23 01:17:24;;;;;;;13.93;5.00;;;3.00;99.90;;;;;;5051356;28;20171;-81
2021/03/23 01:19:49;;;;;;;5.03;4.00;;;3.10;99.90;;;;;;5066919;28;20172;-81
2021/03/23 01:22:18;;;;;;;8.47;5.20;;;3.10;99.90;;;;;;5061663;28;20180;-81
2021/03/23 01:24:43;;;;;;;15.70;7.00;;;2.90;99.90;;;;;;5059967;28;20157;-82
2021/03/23 01:27:09;;;;;;;14.90;6.00;;;3.00;99.90;;;;;;5059653;28;20716;-81
2021/03/23 01:29:35;;;;;;;8.00;5.20;;;3.00;99.90;;;;;;5060451;28;20551;-82
2021/03/23 01:32:01;;;;;;;8.90;5.73;;;3.10;99.90;;;;;;5061084;28;20168;-82
2021/03/23 01:34:27;;;;;;;6.13;5.27;;;3.30;99.90;;;;;;5060794;28;20398;-82
2021/03/23 01:36:55;;;;;;;16.67;6.33;;;3.40;99.90;;;;;;5061586;28;20258;-82
2021/03/23 01:39:22;;;;;;;6.17;5.53;;;3.30;99.90;;;;;;5061539;28;20195;-81
2021/03/23 01:41:48;;;;;;;7.93;4.63;;;3.10;99.90;;;;;;5061745;28;20485;-79
2021/03/23 01:44:13;;;;;;;8.07;5.47;;;3.00;99.90;;;;;;5059678;28;20425;-81
2021/03/23 01:46:48;;;;;;;6.87;5.00;;;2.90;99.90;;;;;;5060114;28;20202;-81
2021/03/23 01:49:19;;;;;;;6.67;5.77;;;2.90;99.90;;;;;;5059048;28;20173;-82
2021/03/23 01:51:48;;;;;;;5.00;4.50;;;2.90;99.90;;;;;;5059963;28;20376;-81
2021/03/23 01:54:20;;;;;;;14.50;5.70;;;2.70;99.90;;;;;;5059655;28;20402;-81
2021/03/23 01:56:48;;;;;;;7.73;5.67;;;2.70;99.90;;;;;;5058720;28;20481;-81
2021/03/23 01:59:14;;;;;;;7.80;5.33;;;2.70;99.90;;;;;;5064011;28;20545;-82
2021/03/23 02:01:40;;;;;;;13.50;6.97;;;2.70;99.90;;;;;;5065292;28;20382;-82
2021/03/23 02:04:06;;;;;;;7.90;5.37;;;2.80;99.90;;;;;;5064716;28;20541;-83
2021/03/23 02:06:38;;;;;;;5.60;4.10;;;2.80;99.90;;;;;;5064248;28;20369;-81
2021/03/23 02:09:09;;;;;;;13.23;5.80;;;2.90;99.90;;;;;;5064915;28;20430;-82
2021/03/23 02:11:48;;;;;;;17.13;5.90;;;2.80;99.90;;;;;;5064002;28;20413;-82
2021/03/23 02:14:15;;;;;;;8.80;4.87;;;2.90;99.90;;;;;;5064189;28;20398;-82
2021/03/23 02:16:42;;;;;;;5.90;4.33;;;2.80;99.90;;;;;;5062795;28;20377;-82
2021/03/23 02:19:09;;;;;;;8.83;6.10;;;3.00;99.90;;;;;;5064489;28;20402;-82
2021/03/23 02:21:35;;;;;;;7.63;5.33;;;2.90;99.90;;;;;;5063705;28;20385;-82
2021/03/23 02:24:01;;;;;;;5.30;3.73;;;2.90;99.90;;;;;;5064338;28;20417;-80
2021/03/23 02:26:31;;;;;;;13.10;6.87;;;2.90;99.90;;;;;;5062332;28;20167;-79
2021/03/23 02:29:04;;;;;;;8.20;6.00;;;3.00;99.90;;;;;;5062152;28;20838;-80
2021/03/23 02:31:36;;;;;;;9.07;6.60;;;2.80;99.90;;;;;;5062048;28;20822;-80
2021/03/23 02:34:05;;;;;;;6.63;5.20;;;2.90;99.90;;;;;;5062026;28;20756;-80
2021/03/23 02:36:32;;;;;;;9.63;5.90;;;2.80;99.90;;;;;;5060594;28;20456;-80
2021/03/23 02:38:58;;;;;;;15.10;6.17;;;2.90;99.90;;;;;;5058200;28;20431;-81
2021/03/23 02:41:24;;;;;;;10.50;4.50;;;3.00;99.90;;;;;;5059179;28;20501;-83
2021/03/23 02:43:50;;;;;;;11.13;8.50;;;2.90;99.90;;;;;;5058071;28;20516;-82
2021/03/23 02:46:16;;;;;;;6.97;4.97;;;3.10;99.90;;;;;;5058985;28;20398;-82
2021/03/23 02:48:42;;;;;;;5.63;4.90;;;3.00;99.90;;;;;;5057925;28;20399;-83
2021/03/23 02:51:11;;;;;;;7.97;5.23;;;3.00;99.90;;;;;;5058789;28;20401;-83
2021/03/23 02:53:37;;;;;;;7.40;4.27;;;3.10;99.90;;;;;;5058816;28;20190;-82
2021/03/23 02:56:06;;;;;;;8.00;5.03;;;3.10;99.90;;;;;;5058789;28;20407;-82
2021/03/23 02:58:31;;;;;;;6.60;5.20;;;3.20;99.90;;;;;;5058837;28;20614;-82
2021/03/23 03:00:57;;;;;;;11.20;6.10;;;3.20;99.90;;;;;;5058893;28;20381;-83
2021/03/23 03:03:23;;;;;;;11.73;6.40;;;3.00;99.90;;;;;;5058859;28;20195;-83
2021/03/23 03:05:49;;;;;;;11.00;4.80;;;2.90;99.90;;;;;;5058691;28;20191;-83
2021/03/23 03:08:14;;;;;;;5.60;5.10;;;2.90;99.90;;;;;;5058496;28;20648;-82
2021/03/23 03:10:40;;;;;;;8.67;5.50;;;2.90;99.90;;;;;;5058350;28;20164;-83
2021/03/23 03:13:06;;;;;;;17.83;6.70;;;3.00;99.90;;;;;;5058663;28;20164;-82
2021/03/23 03:15:32;;;;;;;8.00;5.03;;;2.90;99.90;;;;;;5058533;28;20247;-82
2021/03/23 03:18:01;;;;;;;8.60;5.10;;;2.70;99.90;;;;;;5058743;28;20182;-82
2021/03/23 03:20:27;;;;;;;6.47;4.57;;;2.80;99.90;;;;;;5057875;28;20399;-82
2021/03/23 03:22:52;;;;;;;8.53;4.77;;;2.70;99.90;;;;;;5057488;28;20656;-82
2021/03/23 03:25:20;;;;;;;8.97;4.97;;;2.70;99.90;;;;;;5040840;28;20593;-82
2021/03/23 03:27:46;;;;;;;6.37;5.73;;;2.70;99.90;;;;;;5057995;28;20179;-82
2021/03/23 03:30:30;;;;;;;6.87;5.17;;;2.70;99.90;;;;;;5058277;28;20399;-82
2021/03/23 03:32:57;;;;;;;12.93;6.47;;;2.80;99.90;;;;;;5057987;28;20460;-82
2021/03/23 03:35:26;;;;;;;12.33;5.33;;;2.70;99.90;;;;;;5058154;28;20380;-82
2021/03/23 03:37:52;;;;;;;13.73;6.23;;;2.70;99.90;;;;;;5058236;28;20373;-82
2021/03/23 03:40:24;;;;;;;13.53;5.87;;;2.70;99.90;;;;;;5056758;28;20803;-81
2021/03/23 03:42:50;;;;;;;7.87;4.53;;;2.70;99.90;;;;;;5057545;28;20677;-82
2021/03/23 03:45:17;;;;;;;13.70;6.23;;;2.80;99.90;;;;;;5058388;28;20398;-82
2021/03/23 03:47:42;;;;;;;4.70;4.13;;;2.80;99.90;;;;;;5058347;28;20405;-81
2021/03/23 03:50:09;;;;;;;8.03;4.80;;;2.80;99.90;;;;;;5057789;28;20626;-82
2021/03/23 03:52:35;;;;;;;7.53;4.77;;;2.80;99.90;;;;;;5058967;28;20172;-82
2021/03/23 03:55:01;;;;;;;7.67;4.00;;;2.80;99.90;;;;;;5057698;28;20486;-82
2021/03/23 03:57:27;;;;;;;10.63;5.20;;;2.80;99.90;;;;;;5069691;28;20381;-82
2021/03/23 03:59:53;;;;;;;9.80;5.40;;;2.80;99.90;;;;;;5071055;28;20164;-80
2021/03/23 04:02:19;;;;;;;9.03;4.43;;;2.90;99.90;;;;;;5069808;28;20224;-80
2021/03/23 04:04:46;;;;;;;7.30;4.80;;;2.90;99.90;;;;;;5068725;28;20373;-81
2021/03/23 04:07:12;;;;;;;13.20;5.00;;;2.90;99.90;;;;;;5067218;28;20192;-80
2021/03/23 04:09:38;;;;;;;12.23;5.20;;;3.00;99.90;;;;;;5067630;28;20469;-82
2021/03/23 04:12:06;;;;;;;15.30;6.00;;;2.90;99.90;;;;;;5057891;28;20395;-82
2021/03/23 04:14:31;;;;;;;6.97;5.43;;;2.90;99.90;;;;;;5058152;28;20199;-82
2021/03/23 04:16:57;;;;;;;7.33;4.27;;;2.90;99.90;;;;;;5057249;28;20410;-82
2021/03/23 04:19:23;;;;;;;6.53;5.53;;;2.80;99.90;;;;;;5059217;28;20613;-82
2021/03/23 04:21:49;;;;;;;7.50;6.07;;;2.90;99.90;;;;;;5058205;28;20641;-82
2021/03/23 04:24:15;;;;;;;5.20;4.13;;;2.90;99.90;;;;;;5057787;28;20542;-82
2021/03/23 04:26:41;;;;;;;10.70;5.60;;;3.00;99.90;;;;;;5056407;28;20224;-82
2021/03/23 04:29:07;;;;;;;12.83;6.13;;;3.00;99.90;;;;;;5058759;28;21006;-82
2021/03/23 04:31:40;;;;;;;8.20;4.53;;;2.90;99.90;;;;;;5057251;28;20376;-82
2021/03/23 04:34:07;;;;;;;6.07;4.13;;;2.90;99.90;;;;;;5058226;28;20160;-82
2021/03/23 04:36:34;;;;;;;6.30;5.20;;;3.10;99.90;;;;;;5058726;28;20403;-82
2021/03/23 04:39:03;;;;;;;6.67;5.03;;;3.10;99.90;;;;;;5057740;28;20803;-82
2021/03/23 04:41:28;;;;;;;6.60;5.23;;;3.10;99.90;;;;;;5058715;28;20429;-82
2021/03/23 04:43:54;;;;;;;9.67;6.13;;;3.10;99.90;;;;;;5058229;28;20447;-82
2021/03/23 04:46:24;;;;;;;6.77;5.00;;;3.00;99.90;;;;;;5057877;28;20167;-82
2021/03/23 04:48:51;;;;;;;8.93;4.40;;;3.00;99.90;;;;;;5058414;28;20161;-82
2021/03/23 04:51:19;;;;;;;7.97;4.47;;;3.20;99.90;;;;;;5058939;28;20409;-82
2021/03/23 04:53:45;;;;;;;7.33;5.27;;;3.10;99.90;;;;;;5057097;28;20721;-82
2021/03/23 04:56:24;;;;;;;8.80;5.50;;;3.10;99.90;;;;;;5057190;28;20394;-82
2021/03/23 04:58:51;;;;;;;12.37;7.03;;;3.00;99.90;;;;;;5059027;28;20401;-82
2021/03/23 05:01:17;;;;;;;9.20;5.90;;;3.10;99.90;;;;;;5059048;28;20403;-82
2021/03/23 05:03:43;;;;;;;9.07;5.63;;;3.10;99.90;;;;;;5059559;28;20758;-83
2021/03/23 05:06:12;;;;;;;9.37;6.70;;;3.10;99.90;;;;;;5062326;28;20523;-82
2021/03/23 05:08:42;;;;;;;7.40;6.43;;;3.10;99.90;;;;;;5080489;28;20447;-82
2021/03/23 05:11:10;;;;;;;8.30;6.13;;;3.20;99.90;;;;;;5081342;28;20441;-83
2021/03/23 05:13:36;;;;;;;10.60;6.60;;;3.20;99.90;;;;;;5080935;28;20402;-82
2021/03/23 05:16:02;;;;;;;8.97;7.03;;;3.20;99.90;;;;;;5080900;28;20728;-82
2021/03/23 05:18:28;;;;;;;8.20;4.83;;;3.30;99.90;;;;;;5079287;28;20202;-82
2021/03/23 05:20:54;;;;;;;16.70;6.27;;;3.40;99.90;;;;;;5064974;28;20418;-82
2021/03/23 05:23:21;;;;;;;7.83;4.97;;;3.30;99.90;;;;;;5060814;28;20470;-82
2021/03/23 05:25:50;;;;;;;8.80;5.23;;;3.50;99.90;;;;;;5073420;28;20380;-82
2021/03/23 05:28:17;;;;;;;12.40;6.50;;;3.50;99.90;;;;;;5069957;28;20422;-82
2021/03/23 05:30:43;;;;;;;12.13;6.00;;;3.70;99.90;;;;;;5073471;28;20410;-82
2021/03/23 05:33:12;;;;;;;15.33;6.50;;;3.40;99.90;;;;;;5079866;28;20377;-82
2021/03/23 05:35:38;;;;;;;10.60;7.67;;;3.40;99.90;;;;;;5079784;28;20958;-82
2021/03/23 05:38:04;;;;;;;8.83;6.40;;;3.60;99.90;;;;;;5073354;28;20404;-82
2021/03/23 05:40:35;;;;;;;16.80;5.70;;;3.60;99.90;;;;;;5059378;28;20756;-82
2021/03/23 05:43:16;;;;;;;10.27;6.70;;;3.50;99.90;;;;;;5063091;28;20227;-82
2021/03/23 05:45:42;;;;;;;10.43;7.60;;;3.60;99.90;;;;;;5061241;28;20399;-82
2021/03/23 05:48:19;;;;;;;7.37;5.47;;;3.60;99.90;;;;;;5062229;28;20374;-82
2021/03/23 05:51:10;;;;;;;7.67;5.70;;;3.60;99.90;;;;;;5068574;28;20388;-83
2021/03/23 05:53:44;;;;;;;8.43;6.03;;;3.70;99.90;;;;;;5079188;28;20392;-82
2021/03/23 05:56:11;;;;;;;9.20;5.73;;;3.80;99.90;;;;;;5072407;28;20389;-83
2021/03/23 05:58:41;;;;;;;10.23;6.40;;;3.80;99.90;;;;;;5068258;28;20443;-83
2021/03/23 06:01:22;;;;;;;11.43;5.93;;;3.70;99.90;;;;;;5072638;28;20546;-83
2021/03/23 06:03:57;;;;;;;6.40;5.73;;;3.80;99.90;;;;;;5065397;28;20540;-82
2021/03/23 06:06:40;;;;;;;8.10;6.70;;;3.80;99.90;;;;;;5073115;28;20410;-82
2021/03/23 06:09:11;;;;;;;11.87;6.67;;;3.90;99.90;;;;;;5062420;28;20433;-79
2021/03/23 06:11:56;;;;;;;25.20;8.50;;;3.80;99.90;;;;;;5061209;28;20406;-82
2021/03/23 06:14:39;;;;;;;10.90;6.20;;;3.80;99.90;;;;;;5060482;28;20416;-79
2021/03/23 06:17:16;;;;;;;17.57;7.17;;;3.70;99.90;;;;;;5071686;28;20385;-79
2021/03/23 06:19:52;;;;;;;24.83;7.93;;;3.80;99.90;;;;;;5073953;28;20420;-83
2021/03/23 06:22:48;;;;;;;21.20;7.37;;;3.80;99.90;;;;;;5074777;28;20914;-82
2021/03/23 06:25:29;;;;;;;18.43;6.60;;;3.80;99.90;;;;;;5090224;28;20369;-81
2021/03/23 06:28:00;;;;;;;17.80;7.30;;;3.70;99.90;;;;;;5095595;28;20397;-82
2021/03/23 06:30:57;;;;;;;17.63;7.10;;;3.70;99.90;;;;;;5094546;28;20393;-83
2021/03/23 06:33:26;;;;;;;9.10;6.80;;;3.80;99.90;;;;;;5078699;28;20417;-83
2021/03/23 06:35:59;;;;;;;11.30;6.93;;;3.90;99.90;;;;;;5079699;28;20402;-81
2021/03/23 06:38:32;;;;;;;13.00;8.03;;;3.70;99.90;;;;;;5066545;28;20425;-82
2021/03/23 06:41:19;;;;;;;9.50;5.20;;;3.80;99.90;;;;;;5079699;28;20374;-81
2021/03/23 06:43:49;;;;;;;15.30;8.00;;;3.80;99.90;;;;;;5079191;28;20448;-82
2021/03/23 06:46:24;;;;;;;14.80;6.13;;;3.80;99.90;;;;;;5073078;28;20454;-81
2021/03/23 06:49:25;;;;;;;9.00;7.00;;;4.00;99.90;;;;;;5069269;28;20462;-81
2021/03/23 06:52:20;;;;;;;10.13;7.87;;;3.90;99.90;;;;;;5067989;28;20814;-81
2021/03/23 06:55:10;;;;;;;9.50;6.20;;;3.80;99.90;;;;;;5062428;28;20389;-82
2021/03/23 06:57:38;;;;;;;12.77;6.40;;;3.80;99.90;;;;;;5066498;28;20389;-82
2021/03/23 07:00:31;;;;;;;7.50;5.43;;;3.90;99.90;;;;;;5081868;28;20386;-82
2021/03/23 07:03:11;;;;;;;13.43;5.90;;;4.10;99.90;;;;;;5080494;28;20416;-82
2021/03/23 07:05:40;;;;;;;9.60;5.87;;;4.00;99.90;;;;;;5080551;28;20492;-82
2021/03/23 07:08:26;;;;;;;11.70;7.80;;;4.20;99.90;;;;;;5081321;28;20419;-82
2021/03/23 07:11:06;;;;;;;17.67;6.43;;;4.30;99.90;;;;;;5080138;28;20369;-82
2021/03/23 07:13:35;;;;;;;14.83;7.33;;;4.40;99.90;;;;;;5081971;28;20408;-82
2021/03/23 07:16:25;;;;;;;9.37;6.57;;;4.30;99.90;;;;;;5080136;28;20388;-82
2021/03/23 07:18:52;;;;;;;17.13;8.00;;;4.20;99.90;;;;;;5078178;28;20380;-82
2021/03/23 07:21:50;;;;;;;13.40;7.20;;;4.20;99.90;;;;;;5082520;28;20388;-81
2021/03/23 07:24:19;;;;;;;19.77;6.93;;;4.20;99.90;;;;;;5079497;28;20911;-81
2021/03/23 07:27:07;;;;;;;10.67;7.67;;;4.20;99.90;;;;;;5081530;28;20422;-82
2021/03/23 07:29:36;;;;;;;12.27;6.10;;;4.20;99.90;;;;;;5080062;28;20395;-81
2021/03/23 07:32:20;;;;;;;11.13;7.03;;;4.40;99.90;;;;;;5081713;28;20882;-79
2021/03/23 07:35:05;;;;;;;11.20;7.50;;;4.40;99.90;;;;;;5068613;28;20404;-82
2021/03/23 07:37:41;;;;;;;15.23;7.13;;;4.30;99.90;;;;;;5068287;28;20410;-81
2021/03/23 07:40:21;;;;;;;16.97;6.97;;;4.40;99.90;;;;;;5063808;28;20425;-82
2021/03/23 07:43:17;;;;;;;12.13;9.87;;;4.30;99.90;;;;;;5064814;28;20808;-82
2021/03/23 07:46:06;;;;;;;9.40;6.30;;;4.50;99.90;;;;;;5059945;28;20964;-82
2021/03/23 07:48:43;;;;;;;12.30;7.00;;;4.60;99.90;;;;;;5077670;28;20410;-81
2021/03/23 07:51:29;;;;;;;8.77;5.97;;;4.50;99.90;;;;;;5080880;28;20393;-82
2021/03/23 07:54:04;;;;;;;9.40;7.30;;;4.60;99.90;;;;;;5080721;28;20393;-81
2021/03/23 07:56:52;;;;;;;12.90;7.40;;;4.60;99.90;;;;;;5079507;28;20505;-79
2021/03/23 07:59:45;;;;;;;14.43;8.60;;;4.60;99.90;;;;;;5071577;28;20438;-81
2021/03/23 08:02:32;;;;;;;34.37;7.90;;;4.70;99.90;;;;;;5069620;28;20414;-82
2021/03/23 08:05:15;;;;;;;12.63;7.57;;;4.70;99.90;;;;;;5069290;28;20442;-81
2021/03/23 08:08:06;;;;;;;11.00;6.70;;;4.90;99.90;;;;;;5070511;28;20433;-81
2021/03/23 08:10:55;;;;;;;20.93;8.03;;;4.90;99.90;;;;;;5062794;28;20486;-82
2021/03/23 08:13:48;;;;;;;11.40;6.77;;;5.10;99.90;;;;;;5075769;28;20432;-81
2021/03/23 08:16:39;;;;;;;9.33;7.63;;;5.10;99.90;;;;;;5075347;28;20406;-81
2021/03/23 08:19:35;;;;;;;13.40;8.60;;;5.30;99.90;;;;;;5078837;28;20420;-80
2021/03/23 08:22:40;;;;;;;13.73;6.80;;;5.60;99.90;;;;;;5061407;28;20422;-79
2021/03/23 08:25:28;;;;;;;10.40;7.20;;;6.00;99.90;;;;;;5068717;28;20434;-81
2021/03/23 08:28:10;;;;;;;7.00;6.30;;;6.20;99.90;;;;;;5072726;28;20436;-82
2021/03/23 08:30:51;;;;;;;10.50;6.77;;;6.40;99.90;;;;;;5063646;28;20548;-80
2021/03/23 08:33:37;;;;;;;10.00;5.80;;;6.60;99.90;;;;;;5066730;28;20401;-82
2021/03/23 08:36:21;;;;;;;11.00;6.13;;;6.80;99.90;;;;;;5076687;28;20464;-80
2021/03/23 08:38:55;;;;;;;10.98;8.23;;;6.70;99.90;;;;;;5079535;28;20436;-82
2021/03/23 08:41:42;;;;;;;16.23;8.83;;;6.90;99.90;;;;;;5075708;28;20232;-82
2021/03/23 08:44:25;;;;;;;8.67;7.77;;;7.10;99.90;;;;;;5072820;28;20428;-82
2021/03/23 08:46:53;;;;;;;9.00;5.93;;;7.00;99.90;;;;;;5071533;28;20413;-81
2021/03/23 08:49:21;;;;;;;9.37;5.97;;;7.20;99.90;;;;;;5071881;28;20751;-82
2021/03/23 08:51:50;;;;;;;7.80;6.30;;;7.40;99.90;;;;;;5068516;28;20418;-83
2021/03/23 08:54:51;;;;;;;10.20;6.47;;;7.50;99.90;;;;;;5081814;28;20432;-81
2021/03/23 08:57:18;;;;;;;9.53;6.10;;;7.50;99.90;;;;;;5072198;28;20391;-81
2021/03/23 08:59:47;;;;;;;8.23;5.80;;;7.60;99.90;;;;;;5072274;28;20428;-80
2021/03/23 09:02:37;;;;;;;6.13;5.53;;;7.70;99.90;;;;;;5088174;28;20850;-82
2021/03/23 09:05:17;;;;;;;6.67;5.80;;;7.70;99.90;;;;;;5064497;28;20429;-80
2021/03/23 09:07:43;;;;;;;12.73;8.90;;;7.80;99.90;;;;;;5074209;28;20411;-80
2021/03/23 09:10:40;;;;;;;7.60;6.00;;;7.80;99.90;;;;;;5083202;28;20400;-80
2021/03/23 09:13:40;;;;;;;6.30;5.57;;;7.80;99.90;;;;;;5077088;28;20163;-80
2021/03/23 09:16:18;;;;;;;7.47;6.53;;;7.80;99.90;;;;;;5074999;28;20677;-79
2021/03/23 09:19:04;;;;;;;10.97;6.87;;;7.80;99.90;;;;;;5060144;28;20940;-80
2021/03/23 09:22:04;;;;;;;8.20;5.57;;;8.00;99.90;;;;;;5074130;28;20409;-80
2021/03/23 09:24:35;;;;;;;22.83;6.50;;;8.00;99.90;;;;;;5080988;28;20445;-81
2021/03/23 09:27:04;;;;;;;9.10;6.13;;;8.00;99.90;;;;;;5073817;28;20413;-81
2021/03/23 09:29:41;;;;;;;8.20;6.10;;;7.90;99.90;;;;;;5073314;28;20418;-80
2021/03/23 09:32:15;;;;;;;8.90;6.37;;;7.80;99.90;;;;;;5075017;28;20417;-81
2021/03/23 09:35:09;;;;;;;7.90;5.70;;;7.80;99.90;;;;;;5070950;28;20411;-80
2021/03/23 09:38:10;;;;;;;13.47;5.20;;;7.80;99.90;;;;;;5067977;28;20426;-81
2021/03/23 09:40:56;;;;;;;7.70;5.97;;;7.70;99.90;;;;;;5063903;28;20469;-81
2021/03/23 09:43:29;;;;;;;10.57;6.93;;;7.70;99.90;;;;;;5070050;28;20480;-81
2021/03/23 09:46:00;;;;;;;9.07;6.23;;;7.70;99.90;;;;;;5078870;28;20482;-81
2021/03/23 09:48:37;;;;;;;8.70;6.60;;;7.80;99.90;;;;;;5080726;28;20763;-81
2021/03/23 09:51:14;;;;;;;10.90;6.40;;;7.80;99.90;;;;;;5096894;28;20413;-81
2021/03/23 09:53:43;;;;;;;7.33;6.63;;;7.70;99.90;;;;;;5079823;28;20424;-81
2021/03/23 09:56:18;;;;;;;8.60;7.80;;;7.80;99.90;;;;;;5077389;28;20418;-81
2021/03/23 09:58:44;;;;;;;8.40;6.20;;;7.80;99.90;;;;;;5073852;28;20505;-82
2021/03/23 10:01:15;;;;;;;9.43;6.10;;;7.80;99.90;;;;;;5071915;28;20461;-81
2021/03/23 10:03:42;;;;;;;6.87;5.90;;;7.90;99.90;;;;;;5077282;28;20190;-82
2021/03/23 10:06:20;;;;;;;6.87;6.27;;;7.90;99.90;;;;;;5060951;28;20421;-81
2021/03/23 10:09:02;;;;;;;6.70;5.83;;;7.90;99.90;;;;;;5061128;28;20420;-81
2021/03/23 10:11:44;;;;;;;8.20;5.90;;;7.90;99.90;;;;;;5067695;28;20490;-81
2021/03/23 10:14:19;;;;;;;6.00;5.37;;;7.90;99.90;;;;;;5062708;28;20418;-80
2021/03/23 10:16:45;;;;;;;8.30;6.10;;;8.00;99.90;;;;;;5065240;28;20540;-82
2021/03/23 10:19:23;;;;;;;5.53;5.03;;;7.90;99.90;;;;;;5063178;28;20454;-80
2021/03/23 10:21:51;;;;;;;6.17;5.30;;;7.90;99.90;;;;;;5074398;28;20213;-81
2021/03/23 10:24:22;;;;;;;6.57;5.47;;;8.00;99.90;;;;;;5073357;28;20511;-82
2021/03/23 10:26:56;;;;;;;7.43;5.93;;;7.90;99.90;;;;;;5079209;28;20793;-82
2021/03/23 10:29:33;;;;;;;6.93;5.93;;;8.00;99.90;;;;;;5040874;28;20397;-82
2021/03/23 10:32:15;;;;;;;6.47;5.80;;;8.00;99.90;;;;;;5063168;28;20766;-82
2021/03/23 10:35:04;;;;;;;8.90;6.30;;;8.00;99.90;;;;;;5050834;28;20433;-82
2021/03/23 10:37:32;;;;;;;6.47;5.40;;;7.90;99.90;;;;;;5077762;28;20441;-82
2021/03/23 10:39:58;;;;;;;16.13;6.47;;;8.00;99.90;;;;;;5066404;28;20894;-82
2021/03/23 10:42:28;;;;;;;9.40;6.20;;;8.00;99.90;;;;;;5074575;28;20518;-81
2021/03/23 10:45:29;;;;;;;10.30;6.70;;;7.90;99.90;;;;;;5068739;28;20459;-81
2021/03/23 10:48:16;;;;;;;7.87;5.53;;;7.90;99.90;;;;;;5073946;28;20478;-80
2021/03/23 10:50:44;;;;;;;8.30;7.20;;;8.00;99.90;;;;;;5080934;28;20461;-80
2021/03/23 10:53:19;;;;;;;6.60;5.73;;;8.20;99.90;;;;;;5070668;28;20423;-81
2021/03/23 10:55:49;;;;;;;12.57;6.37;;;8.20;99.90;;;;;;5067488;28;20444;-81
2021/03/23 10:58:21;;;;;;;6.87;5.73;;;8.30;99.90;;;;;;5058386;28;20510;-81
2021/03/23 11:00:51;;;;;;;7.80;6.63;;;8.40;99.90;;;;;;5065233;28;20427;-81
2021/03/23 11:03:30;;;;;;;7.73;6.20;;;8.50;99.90;;;;;;5065505;28;20467;-80
2021/03/23 11:05:57;;;;;;;7.47;6.77;;;8.50;99.90;;;;;;5075839;28;20425;-82
2021/03/23 11:08:23;;;;;;;5.90;5.30;;;8.50;99.90;;;;;;5071130;28;20473;-82
2021/03/23 11:10:49;;;;;;;9.43;6.97;;;8.50;99.90;;;;;;5043301;28;20826;-82
2021/03/23 11:13:16;;;;;;;8.20;6.70;;;8.60;99.90;;;;;;5059907;28;20425;-82
2021/03/23 11:15:45;;;;;;;8.27;6.50;;;8.70;99.90;;;;;;5063377;28;20424;-82
2021/03/23 11:18:30;;;;;;;9.90;5.97;;;8.70;99.90;;;;;;5070229;28;20429;-82
2021/03/23 11:21:00;;;;;;;11.60;7.00;;;8.60;99.90;;;;;;5051722;28;20532;-82
2021/03/23 11:23:40;;;;;;;10.10;6.70;;;8.80;99.90;;;;;;5042083;28;20454;-82
2021/03/23 11:26:09;;;;;;;13.00;8.07;;;8.90;99.90;;;;;;5018102;28;20442;-82
2021/03/23 11:28:36;;;;;;;11.60;7.63;;;8.80;99.90;;;;;;5050254;28;20452;-82
2021/03/23 11:31:04;;;;;;;7.23;6.37;;;8.90;99.90;;;;;;5035751;28;20912;-82
2021/03/23 11:33:32;;;;;;;6.57;5.13;;;8.90;99.90;;;;;;5060582;28;20180;-82
2021/03/23 11:35:59;;;;;;;9.27;6.60;;;8.80;99.90;;;;;;5042541;28;20427;-80
2021/03/23 11:38:25;;;;;;;12.67;7.40;;;9.00;99.90;;;;;;5060483;28;20464;-82
2021/03/23 11:40:54;;;;;;;8.90;6.60;;;9.10;99.90;;;;;;5043288;28;20427;-82
2021/03/23 11:43:31;;;;;;;7.10;6.20;;;9.20;99.90;;;;;;5050686;28;20496;-81
2021/03/23 11:46:08;;;;;;;9.30;6.70;;;9.20;99.90;;;;;;5054463;28;20434;-82
2021/03/23 11:48:37;;;;;;;11.20;7.63;;;9.30;99.90;;;;;;5036407;28;20426;-82
2021/03/23 11:51:07;;;;;;;10.33;7.00;;;9.20;99.90;;;;;;5027054;28;20773;-81
2021/03/23 11:53:33;;;;;;;8.33;6.50;;;9.00;99.90;;;;;;4999928;28;20427;-82
2021/03/23 11:55:59;;;;;;;9.03;7.07;;;9.00;99.90;;;;;;5028603;28;20447;-82
2021/03/23 11:58:26;;;;;;;9.97;7.17;;;8.90;99.90;;;;;;5079527;28;20501;-81
2021/03/23 12:00:52;;;;;;;11.00;7.27;;;8.90;99.90;;;;;;5046264;28;20423;-81
2021/03/23 12:03:21;;;;;;;12.63;7.23;;;8.70;99.90;;;;;;5045718;28;20442;-81
2021/03/23 12:05:48;;;;;;;12.87;8.63;;;8.70;99.90;;;;;;5077938;28;20417;-82
2021/03/23 12:08:35;;;;;;;12.17;8.90;;;8.70;99.90;;;;;;5061047;28;20417;-81
2021/03/23 12:11:27;;;;;;;9.90;7.60;;;8.80;99.90;;;;;;5031258;28;20426;-81
2021/03/23 12:14:18;;;;;;;9.83;7.17;;;8.70;99.90;;;;;;5063302;28;20427;-82
2021/03/23 12:16:57;;;;;;;12.73;7.80;;;8.60;99.90;;;;;;5060511;28;20459;-82
2021/03/23 12:19:25;;;;;;;11.53;8.60;;;8.60;99.90;;;;;;5083507;28;20420;-82
2021/03/23 12:21:52;;;;;;;12.43;8.83;;;8.60;99.90;;;;;;5072556;28;20413;-81
2021/03/23 12:24:21;;;;;;;9.63;6.67;;;8.50;99.90;;;;;;5090563;28;21952;-81
2021/03/23 12:26:47;;;;;;;9.80;7.83;;;8.60;99.90;;;;;;5072421;28;20425;-82
2021/03/23 12:29:16;;;;;;;9.53;8.17;;;8.80;99.90;;;;;;5072325;28;20929;-82
2021/03/23 12:31:41;;;;;;;11.50;7.67;;;8.90;99.90;;;;;;5065241;28;20492;-82
2021/03/23 12:34:08;;;;;;;14.33;9.03;;;9.00;99.90;;;;;;5074030;28;20417;-81
2021/03/23 12:36:34;;;;;;;10.70;8.53;;;9.00;99.90;;;;;;5070749;28;20183;-81
2021/03/23 12:39:02;;;;;;;15.00;9.77;;;9.00;99.90;;;;;;5070532;28;20449;-82
2021/03/23 12:42:08;;;;;;;11.67;8.20;;;9.00;99.90;;;;;;5067398;28;20454;-82
2021/03/23 12:44:34;;;;;;;15.83;10.80;;;9.00;99.90;;;;;;5038861;28;20472;-82
2021/03/23 12:47:00;;;;;;;14.37;9.90;;;9.00;99.90;;;;;;5071628;28;20501;-82
2021/03/23 12:49:26;;;;;;;16.50;11.43;;;9.00;99.90;;;;;;5077683;28;20234;-81
2021/03/23 12:51:57;;;;;;;24.47;14.13;;;9.00;99.90;;;;;;5077185;28;20210;-82
2021/03/23 12:54:35;;;;;;;21.43;12.77;;;9.00;99.90;;;;;;5073696;28;20167;-82
2021/03/23 12:57:05;;;;;;;16.60;11.30;;;8.90;99.90;;;;;;5074525;28;20418;-80
2021/03/23 12:59:31;;;;;;;15.23;9.97;;;9.00;99.90;;;;;;5073458;28;20950;-82
2021/03/23 13:01:58;;;;;;;17.10;11.77;;;8.90;99.90;;;;;;5064863;28;20425;-81
2021/03/23 13:04:28;;;;;;;19.90;12.40;;;8.90;99.90;;;;;;5073041;28;20188;-81
2021/03/23 13:06:57;;;;;;;15.90;12.10;;;8.90;99.90;;;;;;5068014;28;20413;-80
2021/03/23 13:09:26;;;;;;;17.00;10.63;;;8.80;99.90;;;;;;5078825;28;20802;-80
2021/03/23 13:11:53;;;;;;;22.10;11.80;;;8.70;99.90;;;;;;5068026;28;20492;-80
2021/03/23 13:14:23;;;;;;;20.93;12.33;;;8.70;99.90;;;;;;5062340;28;20475;-81
2021/03/23 13:16:51;;;;;;;22.43;14.90;;;8.70;99.90;;;;;;5067516;28;20419;-81
2021/03/23 13:19:17;;;;;;;30.30;16.47;;;8.70;99.90;;;;;;5084190;28;20522;-81
2021/03/23 13:21:47;;;;;;;21.40;12.40;;;8.70;99.90;;;;;;5072526;28;20424;-81